createdAt,value
2016-09-22T00:00:19.203Z,13.02
2016-09-22T00:01:19.249Z,13.02
2016-09-22T00:02:18.943Z,13.01
2016-09-22T00:03:19.328Z,13.01
2016-09-22T00:04:18.985Z,12.99
2016-09-22T00:05:19.311Z,12.98
2016-09-22T00:06:19.020Z,13.01
2016-09-22T00:07:19.037Z,12.91
2016-09-22T00:08:19.420Z,12.87
2016-09-22T00:09:19.070Z,12.84
2016-09-22T00:10:19.105Z,12.88
2016-09-22T00:11:19.125Z,12.95
2016-09-22T00:12:19.444Z,12.87
2016-09-22T00:13:19.480Z,12.88
2016-09-22T00:14:19.487Z,12.9
2016-09-22T00:15:19.528Z,12.93
2016-09-22T00:16:19.522Z,13.01
2016-09-22T00:17:19.550Z,12.98
2016-09-22T00:18:19.569Z,13.02
2016-09-22T00:19:19.280Z,12.98
2016-09-22T00:20:18.991Z,12.93
2016-09-22T00:21:19.619Z,13.02
2016-09-22T00:22:19.054Z,12.94
2016-09-22T00:23:19.410Z,12.9
2016-09-22T00:24:19.391Z,12.9
2016-09-22T00:25:19.402Z,13.03
2016-09-22T00:26:19.457Z,12.83
2016-09-22T00:27:19.449Z,12.9
2016-09-22T00:28:19.469Z,13.05
2016-09-22T00:29:19.800Z,12.93
2016-09-22T00:30:19.556Z,12.84
2016-09-22T00:31:19.590Z,13.02
2016-09-22T00:32:20.011Z,12.87
2016-09-22T00:33:19.316Z,12.84
2016-09-22T00:34:19.968Z,13.01
2016-09-22T00:35:19.931Z,12.84
2016-09-22T00:36:19.628Z,12.83
2016-09-22T00:37:19.651Z,12.81
2016-09-22T00:38:19.971Z,12.8
2016-09-22T00:39:20.000Z,12.75
2016-09-22T00:40:20.021Z,12.73
2016-09-22T00:41:19.720Z,12.75
2016-09-22T00:42:20.049Z,12.72
2016-09-22T00:43:19.768Z,12.73
2016-09-22T00:44:20.234Z,12.75
2016-09-22T00:45:20.237Z,12.69
2016-09-22T00:46:19.848Z,12.73
2016-09-22T00:47:20.201Z,12.7
2016-09-22T00:48:20.236Z,12.66
2016-09-22T00:49:20.203Z,12.7
2016-09-22T00:50:20.271Z,12.69
2016-09-22T00:51:19.944Z,12.61
2016-09-22T00:52:20.269Z,12.72
2016-09-22T00:53:20.341Z,12.73
2016-09-22T00:54:20.316Z,12.75
2016-09-22T00:55:20.011Z,12.62
2016-09-22T00:56:20.350Z,12.61
2016-09-22T00:57:20.369Z,12.54
2016-09-22T00:58:20.541Z,12.48
2016-09-22T00:59:20.111Z,12.51
2016-09-22T01:00:20.460Z,12.5
2016-09-22T01:01:20.440Z,12.47
2016-09-22T01:02:19.831Z,12.4
2016-09-22T01:03:20.171Z,12.4
2016-09-22T01:04:20.508Z,12.33
2016-09-22T01:05:20.532Z,12.28
2016-09-22T01:06:20.239Z,12.3
2016-09-22T01:07:20.572Z,12.39
2016-09-22T01:08:20.591Z,12.36
2016-09-22T01:09:20.609Z,12.44
2016-09-22T01:10:20.322Z,12.32
2016-09-22T01:11:20.743Z,12.36
2016-09-22T01:12:20.652Z,12.33
2016-09-22T01:13:20.459Z,12.35
2016-09-22T01:14:20.092Z,12.39
2016-09-22T01:15:20.722Z,12.35
2016-09-22T01:16:20.109Z,12.39
2016-09-22T01:17:20.459Z,12.39
2016-09-22T01:18:20.522Z,12.4
2016-09-22T01:19:20.811Z,12.28
2016-09-22T01:20:20.830Z,12.26
2016-09-22T01:21:20.851Z,12.35
2016-09-22T01:22:20.554Z,12.35
2016-09-22T01:23:20.634Z,12.45
2016-09-22T01:24:20.909Z,12.35
2016-09-22T01:25:20.928Z,12.35
2016-09-22T01:26:20.642Z,12.44
2016-09-22T01:27:20.651Z,12.37
2016-09-22T01:28:20.987Z,12.37
2016-09-22T01:29:20.999Z,12.3
2016-09-22T01:30:21.021Z,12.33
2016-09-22T01:31:20.738Z,12.39
2016-09-22T01:32:20.746Z,12.39
2016-09-22T01:33:21.133Z,12.37
2016-09-22T01:34:21.101Z,12.39
2016-09-22T01:35:20.819Z,12.29
2016-09-22T01:36:21.151Z,12.28
2016-09-22T01:37:21.187Z,12.32
2016-09-22T01:38:21.179Z,12.35
2016-09-22T01:39:21.210Z,12.33
2016-09-22T01:40:20.927Z,12.33
2016-09-22T01:41:20.938Z,12.33
2016-09-22T01:42:21.241Z,12.25
2016-09-22T01:43:21.021Z,12.25
2016-09-22T01:44:20.986Z,12.2
2016-09-22T01:45:21.339Z,12.26
2016-09-22T01:46:21.352Z,12.21
2016-09-22T01:47:21.365Z,12.1
2016-09-22T01:48:21.432Z,12.26
2016-09-22T01:49:21.398Z,12.23
2016-09-22T01:50:21.470Z,12.29
2016-09-22T01:51:21.130Z,12.08
2016-09-22T01:52:21.480Z,12.17
2016-09-22T01:53:21.232Z,12.2
2016-09-22T01:54:21.207Z,12.14
2016-09-22T01:55:21.212Z,12.14
2016-09-22T01:56:21.540Z,12.14
2016-09-22T01:57:21.248Z,12.07
2016-09-22T01:58:21.692Z,12.02
2016-09-22T01:59:21.611Z,12.03
2016-09-22T02:00:21.369Z,12.07
2016-09-22T02:01:21.020Z,12.02
2016-09-22T02:02:21.660Z,12
2016-09-22T02:03:21.418Z,11.96
2016-09-22T02:04:21.394Z,11.91
2016-09-22T02:05:21.396Z,11.96
2016-09-22T02:06:21.119Z,11.88
2016-09-22T02:07:21.757Z,11.89
2016-09-22T02:08:21.506Z,11.93
2016-09-22T02:09:21.588Z,11.95
2016-09-22T02:10:21.811Z,11.97
2016-09-22T02:11:21.531Z,12.02
2016-09-22T02:12:21.956Z,11.95
2016-09-22T02:13:21.559Z,11.97
2016-09-22T02:14:21.583Z,11.91
2016-09-22T02:15:21.939Z,12.03
2016-09-22T02:16:21.931Z,12
2016-09-22T02:17:21.639Z,11.95
2016-09-22T02:18:21.963Z,11.93
2016-09-22T02:19:21.684Z,11.91
2016-09-22T02:20:21.401Z,11.93
2016-09-22T02:21:22.050Z,11.95
2016-09-22T02:22:22.061Z,11.99
2016-09-22T02:23:22.055Z,11.95
2016-09-22T02:24:21.831Z,11.99
2016-09-22T02:25:21.522Z,12.05
2016-09-22T02:26:21.511Z,12.02
2016-09-22T02:27:21.535Z,12.05
2016-09-22T02:28:21.865Z,11.97
2016-09-22T02:29:22.186Z,11.97
2016-09-22T02:30:22.187Z,11.95
2016-09-22T02:31:22.233Z,11.95
2016-09-22T02:32:22.249Z,11.93
2016-09-22T02:33:21.981Z,12
2016-09-22T02:34:22.288Z,11.93
2016-09-22T02:35:22.311Z,11.93
2016-09-22T02:36:22.340Z,12.02
2016-09-22T02:37:22.040Z,12.02
2016-09-22T02:38:22.171Z,11.97
2016-09-22T02:39:21.771Z,11.97
2016-09-22T02:40:21.824Z,11.95
2016-09-22T02:41:22.463Z,11.85
2016-09-22T02:42:22.135Z,11.91
2016-09-22T02:43:22.153Z,11.86
2016-09-22T02:44:22.635Z,11.85
2016-09-22T02:45:22.312Z,11.83
2016-09-22T02:46:21.899Z,11.91
2016-09-22T02:47:22.229Z,11.91
2016-09-22T02:48:22.289Z,11.88
2016-09-22T02:49:22.709Z,11.88
2016-09-22T02:50:22.604Z,11.91
2016-09-22T02:51:22.699Z,11.89
2016-09-22T02:52:22.630Z,11.86
2016-09-22T02:53:22.373Z,11.95
2016-09-22T02:54:22.057Z,11.88
2016-09-22T02:55:22.753Z,11.96
2016-09-22T02:56:22.728Z,11.99
2016-09-22T02:57:22.742Z,11.96
2016-09-22T02:58:22.500Z,11.96
2016-09-22T02:59:22.786Z,11.99
2016-09-22T03:00:22.817Z,12
2016-09-22T03:01:23.017Z,11.95
2016-09-22T03:02:22.851Z,11.93
2016-09-22T03:03:22.547Z,12.02
2016-09-22T03:04:22.888Z,12.03
2016-09-22T03:05:22.900Z,12.14
2016-09-22T03:06:22.609Z,12.17
2016-09-22T03:07:22.641Z,12.2
2016-09-22T03:08:22.709Z,12.14
2016-09-22T03:09:22.672Z,12.08
2016-09-22T03:10:23.018Z,12.12
2016-09-22T03:11:23.027Z,12.17
2016-09-22T03:12:22.729Z,12.18
2016-09-22T03:13:23.110Z,12.15
2016-09-22T03:14:22.453Z,12.14
2016-09-22T03:15:22.792Z,12.15
2016-09-22T03:16:23.118Z,12.23
2016-09-22T03:17:23.142Z,12.23
2016-09-22T03:18:23.169Z,12.21
2016-09-22T03:19:22.556Z,12.29
2016-09-22T03:20:23.201Z,12.23
2016-09-22T03:21:23.219Z,12.23
2016-09-22T03:22:22.600Z,12.21
2016-09-22T03:23:23.307Z,12.23
2016-09-22T03:24:22.964Z,12.23
2016-09-22T03:25:23.286Z,12.25
2016-09-22T03:26:23.308Z,12.3
2016-09-22T03:27:23.329Z,12.33
2016-09-22T03:28:23.361Z,12.21
2016-09-22T03:29:23.384Z,12.32
2016-09-22T03:30:23.089Z,12.25
2016-09-22T03:31:23.423Z,12.28
2016-09-22T03:32:23.428Z,12.29
2016-09-22T03:33:23.149Z,12.32
2016-09-22T03:34:23.156Z,12.29
2016-09-22T03:35:23.508Z,12.2
2016-09-22T03:36:22.907Z,12.2
2016-09-22T03:37:23.555Z,12.23
2016-09-22T03:38:23.588Z,12.26
2016-09-22T03:39:23.257Z,12.2
2016-09-22T03:40:23.301Z,12.25
2016-09-22T03:41:23.297Z,12.23
2016-09-22T03:42:23.739Z,12.15
2016-09-22T03:43:23.738Z,12.17
2016-09-22T03:44:23.108Z,12.23
2016-09-22T03:45:23.697Z,12.15
2016-09-22T03:46:23.708Z,12.14
2016-09-22T03:47:23.421Z,12.17
2016-09-22T03:48:23.809Z,12.17
2016-09-22T03:49:23.453Z,12.17
2016-09-22T03:50:23.478Z,12.18
2016-09-22T03:51:23.548Z,12.07
2016-09-22T03:52:23.975Z,12.05
2016-09-22T03:53:23.859Z,12.07
2016-09-22T03:54:23.885Z,12.03
2016-09-22T03:55:23.585Z,11.96
2016-09-22T03:56:23.609Z,12.03
2016-09-22T03:57:23.612Z,11.95
2016-09-22T03:58:23.707Z,11.93
2016-09-22T03:59:23.669Z,11.96
2016-09-22T04:00:23.675Z,11.91
2016-09-22T04:01:23.389Z,11.86
2016-09-22T04:02:23.718Z,11.88
2016-09-22T04:03:23.785Z,11.95
2016-09-22T04:04:24.070Z,11.88
2016-09-22T04:05:23.572Z,11.86
2016-09-22T04:06:23.807Z,11.85
2016-09-22T04:07:23.917Z,11.85
2016-09-22T04:08:23.893Z,11.8
2016-09-22T04:09:23.905Z,11.77
2016-09-22T04:10:24.186Z,11.74
2016-09-22T04:11:23.887Z,11.77
2016-09-22T04:12:24.234Z,11.71
2016-09-22T04:13:23.685Z,11.63
2016-09-22T04:14:24.055Z,11.59
2016-09-22T04:15:23.986Z,11.73
2016-09-22T04:16:24.017Z,11.63
2016-09-22T04:17:24.046Z,11.71
2016-09-22T04:18:24.235Z,11.56
2016-09-22T04:19:24.413Z,11.55
2016-09-22T04:20:23.776Z,11.59
2016-09-22T04:21:24.116Z,11.55
2016-09-22T04:22:24.463Z,11.38
2016-09-22T04:23:24.131Z,11.48
2016-09-22T04:24:24.155Z,11.45
2016-09-22T04:25:24.163Z,11.41
2016-09-22T04:26:24.502Z,11.34
2016-09-22T04:27:24.209Z,11.34
2016-09-22T04:28:24.551Z,11.3
2016-09-22T04:29:24.290Z,11.35
2016-09-22T04:30:24.578Z,11.3
2016-09-22T04:31:23.985Z,11.31
2016-09-22T04:32:24.622Z,11.35
2016-09-22T04:33:24.475Z,11.3
2016-09-22T04:34:24.363Z,11.26
2016-09-22T04:35:24.677Z,11.2
2016-09-22T04:36:24.388Z,11.23
2016-09-22T04:37:24.714Z,11.25
2016-09-22T04:38:24.742Z,11.26
2016-09-22T04:39:24.434Z,11.22
2016-09-22T04:40:24.472Z,11.19
2016-09-22T04:41:24.789Z,11.23
2016-09-22T04:42:24.504Z,11.15
2016-09-22T04:43:24.560Z,11.16
2016-09-22T04:44:24.852Z,11.15
2016-09-22T04:45:24.869Z,11.12
2016-09-22T04:46:24.782Z,11.01
2016-09-22T04:47:24.285Z,11.07
2016-09-22T04:48:24.921Z,11.12
2016-09-22T04:49:24.322Z,11.02
2016-09-22T04:50:24.950Z,11.08
2016-09-22T04:51:24.996Z,11.1
2016-09-22T04:52:24.697Z,10.94
2016-09-22T04:53:25.070Z,10.95
2016-09-22T04:54:24.438Z,10.97
2016-09-22T04:55:25.057Z,10.94
2016-09-22T04:56:24.760Z,10.97
2016-09-22T04:57:25.114Z,10.92
2016-09-22T04:58:25.170Z,10.97
2016-09-22T04:59:24.820Z,10.9
2016-09-22T05:00:25.158Z,10.98
2016-09-22T05:01:24.869Z,10.9
2016-09-22T05:02:24.893Z,10.97
2016-09-22T05:03:24.906Z,10.97
2016-09-22T05:04:25.116Z,10.86
2016-09-22T05:05:25.251Z,10.97
2016-09-22T05:06:24.970Z,10.9
2016-09-22T05:07:24.989Z,10.94
2016-09-22T05:08:25.521Z,10.92
2016-09-22T05:09:25.341Z,10.9
2016-09-22T05:10:25.396Z,10.92
2016-09-22T05:11:24.746Z,10.86
2016-09-22T05:12:25.500Z,10.84
2016-09-22T05:13:24.834Z,10.83
2016-09-22T05:14:25.418Z,10.89
2016-09-22T05:15:25.140Z,10.83
2016-09-22T05:16:24.837Z,10.86
2016-09-22T05:17:25.478Z,10.86
2016-09-22T05:18:25.253Z,10.89
2016-09-22T05:19:25.511Z,10.86
2016-09-22T05:20:25.685Z,10.87
2016-09-22T05:21:25.560Z,10.9
2016-09-22T05:22:25.658Z,10.86
2016-09-22T05:23:25.288Z,10.86
2016-09-22T05:24:25.391Z,10.86
2016-09-22T05:25:25.843Z,10.87
2016-09-22T05:26:25.332Z,10.92
2016-09-22T05:27:25.673Z,10.97
2016-09-22T05:28:25.751Z,10.98
2016-09-22T05:29:25.709Z,11
2016-09-22T05:30:25.731Z,10.97
2016-09-22T05:31:25.487Z,10.98
2016-09-22T05:32:25.810Z,11.01
2016-09-22T05:33:25.839Z,11.08
2016-09-22T05:34:25.489Z,11
2016-09-22T05:35:25.622Z,11.13
2016-09-22T05:36:25.853Z,11.15
2016-09-22T05:37:25.861Z,11.12
2016-09-22T05:38:25.948Z,11.13
2016-09-22T05:39:25.602Z,11.13
2016-09-22T05:40:25.611Z,11.15
2016-09-22T05:41:25.621Z,11.19
2016-09-22T05:42:25.961Z,11.22
2016-09-22T05:43:26.014Z,11.25
2016-09-22T05:44:25.753Z,11.2
2016-09-22T05:45:26.026Z,11.26
2016-09-22T05:46:26.073Z,11.27
2016-09-22T05:47:26.172Z,11.34
2016-09-22T05:48:25.820Z,11.4
2016-09-22T05:49:26.141Z,11.41
2016-09-22T05:50:25.848Z,11.4
2016-09-22T05:51:25.848Z,11.48
2016-09-22T05:52:25.537Z,11.51
2016-09-22T05:53:25.915Z,11.44
2016-09-22T05:54:25.995Z,11.6
2016-09-22T05:55:25.603Z,11.55
2016-09-22T05:56:25.930Z,11.63
2016-09-22T05:57:26.240Z,11.7
2016-09-22T05:58:25.708Z,11.62
2016-09-22T05:59:25.979Z,11.73
2016-09-22T06:00:26.001Z,11.6
2016-09-22T06:01:26.021Z,11.71
2016-09-22T06:02:26.442Z,11.74
2016-09-22T06:03:26.118Z,11.77
2016-09-22T06:04:26.065Z,11.83
2016-09-22T06:05:26.131Z,11.91
2016-09-22T06:06:26.434Z,11.83
2016-09-22T06:07:26.452Z,11.99
2016-09-22T06:08:26.157Z,11.93
2016-09-22T06:09:26.483Z,11.96
2016-09-22T06:10:25.893Z,11.96
2016-09-22T06:11:26.321Z,12.03
2016-09-22T06:12:26.539Z,12.14
2016-09-22T06:13:26.810Z,12.17
2016-09-22T06:14:26.273Z,12.15
2016-09-22T06:15:26.825Z,12.21
2016-09-22T06:16:26.323Z,12.23
2016-09-22T06:17:26.333Z,12.32
2016-09-22T06:18:26.971Z,12.37
2016-09-22T06:19:26.858Z,12.53
2016-09-22T06:20:26.383Z,12.58
2016-09-22T06:21:27.882Z,12.76
2016-09-22T06:22:26.121Z,12.73
2016-09-22T06:23:26.852Z,12.73
2016-09-22T06:24:26.874Z,12.72
2016-09-22T06:25:26.491Z,12.78
2016-09-22T06:26:26.892Z,12.98
2016-09-22T06:27:26.905Z,12.9
2016-09-22T06:28:26.955Z,13.01
2016-09-22T06:29:26.572Z,13.03
2016-09-22T06:30:26.893Z,13.24
2016-09-22T06:31:26.915Z,13.46
2016-09-22T06:32:26.938Z,13.71
2016-09-22T06:33:26.964Z,13.87
2016-09-22T06:34:26.367Z,13.94
2016-09-22T06:35:26.688Z,13.98
2016-09-22T06:36:26.402Z,14.13
2016-09-22T06:37:27.044Z,14.25
2016-09-22T06:38:26.959Z,14.36
2016-09-22T06:39:27.004Z,14.56
2016-09-22T06:40:26.953Z,14.62
2016-09-22T06:41:27.143Z,14.92
2016-09-22T06:42:27.031Z,15.08
2016-09-22T06:43:27.049Z,15.15
2016-09-22T06:44:27.178Z,15.23
2016-09-22T06:45:27.049Z,15.32
2016-09-22T06:46:27.033Z,15.47
2016-09-22T06:47:27.043Z,15.67
2016-09-22T06:48:27.063Z,15.91
2016-09-22T06:49:27.018Z,16.02
2016-09-22T06:50:27.308Z,16.06
2016-09-22T06:51:27.032Z,16.22
2016-09-22T06:52:27.103Z,16.18
2016-09-22T06:53:27.364Z,16.17
2016-09-22T06:54:27.103Z,16.02
2016-09-22T06:55:27.116Z,15.96
2016-09-22T06:56:27.143Z,15.8
2016-09-22T06:57:27.479Z,15.75
2016-09-22T06:58:27.480Z,15.88
2016-09-22T06:59:27.508Z,15.85
2016-09-22T07:00:27.252Z,16.06
2016-09-22T07:01:27.568Z,16.24
2016-09-22T07:02:27.334Z,16.58
2016-09-22T07:03:27.602Z,16.89
2016-09-22T07:04:27.693Z,17.07
2016-09-22T07:05:27.643Z,17.37
2016-09-22T07:06:27.661Z,17.75
2016-09-22T07:07:27.373Z,18.16
2016-09-22T07:08:27.456Z,18.49
2016-09-22T07:09:27.753Z,18.82
2016-09-22T07:10:27.764Z,19.01
2016-09-22T07:11:27.941Z,19.05
2016-09-22T07:12:27.221Z,18.91
2016-09-22T07:13:27.939Z,18.61
2016-09-22T07:14:27.541Z,18.46
2016-09-22T07:15:27.551Z,18.13
2016-09-22T07:16:27.905Z,18.08
2016-09-22T07:17:27.603Z,18.11
2016-09-22T07:18:28.001Z,17.97
2016-09-22T07:19:27.976Z,17.86
2016-09-22T07:20:27.983Z,17.75
2016-09-22T07:21:28.003Z,17.76
2016-09-22T07:22:27.723Z,17.76
2016-09-22T07:23:27.815Z,17.91
2016-09-22T07:24:28.181Z,17.94
2016-09-22T07:25:28.114Z,18.05
2016-09-22T07:26:28.154Z,18.15
2016-09-22T07:27:28.154Z,18.15
2016-09-22T07:28:27.853Z,18.09
2016-09-22T07:29:27.909Z,17.88
2016-09-22T07:30:27.899Z,17.65
2016-09-22T07:31:28.225Z,17.27
2016-09-22T07:32:28.265Z,17.04
2016-09-22T07:33:28.365Z,16.86
2016-09-22T07:34:28.093Z,16.69
2016-09-22T07:35:28.425Z,16.58
2016-09-22T07:36:28.361Z,16.39
2016-09-22T07:37:28.381Z,16.31
2016-09-22T07:38:28.456Z,16.22
2016-09-22T07:39:28.148Z,16.21
2016-09-22T07:40:28.464Z,16.16
2016-09-22T07:41:28.465Z,16.17
2016-09-22T07:42:28.497Z,16.1
2016-09-22T07:43:28.564Z,16.17
2016-09-22T07:44:28.220Z,16.18
2016-09-22T07:45:28.260Z,16.17
2016-09-22T07:46:28.601Z,16.16
2016-09-22T07:47:28.034Z,16.22
2016-09-22T07:48:28.365Z,16.31
2016-09-22T07:49:28.655Z,16.31
2016-09-22T07:50:28.667Z,16.32
2016-09-22T07:51:28.707Z,16.39
2016-09-22T07:52:28.717Z,16.43
2016-09-22T07:53:28.742Z,16.43
2016-09-22T07:54:28.771Z,16.5
2016-09-22T07:55:28.465Z,16.47
2016-09-22T07:56:28.502Z,16.57
2016-09-22T07:57:28.538Z,16.54
2016-09-22T07:58:28.546Z,16.58
2016-09-22T07:59:28.567Z,16.65
2016-09-22T08:00:28.594Z,16.82
2016-09-22T08:01:28.605Z,16.89
2016-09-22T08:02:28.960Z,16.94
2016-09-22T08:03:29.012Z,16.97
2016-09-22T08:04:29.041Z,16.95
2016-09-22T08:05:28.697Z,16.94
2016-09-22T08:06:28.712Z,17.04
2016-09-22T08:07:29.058Z,17.09
2016-09-22T08:08:29.073Z,17.02
2016-09-22T08:09:29.107Z,17.14
2016-09-22T08:10:29.110Z,17.14
2016-09-22T08:11:29.154Z,17.19
2016-09-22T08:12:28.842Z,17.14
2016-09-22T08:13:29.276Z,17.22
2016-09-22T08:14:29.195Z,17.27
2016-09-22T08:15:28.937Z,17.3
2016-09-22T08:16:28.957Z,17.35
2016-09-22T08:17:28.965Z,17.46
2016-09-22T08:18:28.980Z,17.47
2016-09-22T08:19:29.317Z,17.57
2016-09-22T08:20:29.335Z,17.6
2016-09-22T08:21:29.367Z,17.59
2016-09-22T08:22:29.086Z,17.56
2016-09-22T08:23:29.109Z,17.75
2016-09-22T08:24:29.134Z,17.75
2016-09-22T08:25:29.135Z,17.79
2016-09-22T08:26:29.579Z,17.79
2016-09-22T08:27:29.507Z,17.8
2016-09-22T08:28:29.526Z,17.9
2016-09-22T08:29:29.227Z,17.94
2016-09-22T08:30:29.276Z,17.97
2016-09-22T08:31:29.285Z,17.97
2016-09-22T08:32:29.308Z,18.13
2016-09-22T08:33:29.883Z,18.09
2016-09-22T08:34:29.357Z,18.11
2016-09-22T08:35:29.388Z,18.11
2016-09-22T08:36:29.708Z,18.31
2016-09-22T08:37:29.879Z,18.16
2016-09-22T08:38:29.763Z,18.16
2016-09-22T08:39:29.788Z,18.27
2016-09-22T08:40:29.497Z,18.27
2016-09-22T08:41:29.519Z,18.36
2016-09-22T08:42:29.590Z,18.36
2016-09-22T08:43:29.976Z,18.48
2016-09-22T08:44:29.578Z,18.55
2016-09-22T08:45:30.269Z,18.58
2016-09-22T08:46:29.648Z,18.57
2016-09-22T08:47:30.008Z,18.68
2016-09-22T08:48:30.150Z,18.68
2016-09-22T08:49:29.694Z,18.81
2016-09-22T08:50:29.746Z,18.89
2016-09-22T08:51:29.753Z,18.81
2016-09-22T08:52:29.456Z,18.98
2016-09-22T08:53:30.029Z,18.88
2016-09-22T08:54:30.198Z,18.97
2016-09-22T08:55:29.896Z,18.98
2016-09-22T08:56:30.179Z,18.98
2016-09-22T08:57:30.211Z,19.11
2016-09-22T08:58:30.345Z,19.08
2016-09-22T08:59:30.331Z,19.16
2016-09-22T09:00:30.067Z,19.17
2016-09-22T09:01:30.341Z,19.2
2016-09-22T09:02:30.460Z,19.22
2016-09-22T09:03:30.389Z,19.15
2016-09-22T09:04:30.418Z,19.15
2016-09-22T09:05:30.413Z,19.19
2016-09-22T09:06:30.099Z,19.11
2016-09-22T09:07:30.146Z,19.16
2016-09-22T09:08:30.467Z,19.23
2016-09-22T09:09:30.499Z,19.2
2016-09-22T09:10:30.549Z,19.32
2016-09-22T09:11:30.570Z,19.34
2016-09-22T09:12:30.618Z,19.35
2016-09-22T09:13:30.311Z,19.39
2016-09-22T09:14:30.284Z,19.52
2016-09-22T09:15:30.309Z,19.44
2016-09-22T09:16:30.349Z,19.39
2016-09-22T09:17:30.677Z,19.49
2016-09-22T09:18:30.398Z,19.62
2016-09-22T09:19:30.849Z,19.52
2016-09-22T09:20:30.116Z,19.64
2016-09-22T09:21:30.536Z,19.63
2016-09-22T09:22:30.487Z,19.7
2016-09-22T09:23:30.654Z,19.67
2016-09-22T09:24:30.843Z,19.71
2016-09-22T09:25:30.867Z,19.64
2016-09-22T09:26:30.582Z,19.79
2016-09-22T09:27:30.918Z,19.66
2016-09-22T09:28:30.940Z,19.75
2016-09-22T09:29:30.868Z,19.82
2016-09-22T09:30:30.972Z,19.78
2016-09-22T09:31:30.723Z,19.74
2016-09-22T09:32:30.433Z,19.87
2016-09-22T09:33:30.732Z,19.92
2016-09-22T09:34:31.084Z,19.82
2016-09-22T09:35:30.497Z,19.82
2016-09-22T09:36:30.836Z,19.99
2016-09-22T09:37:30.846Z,20.04
2016-09-22T09:38:31.218Z,19.94
2016-09-22T09:39:30.897Z,20.04
2016-09-22T09:40:31.240Z,20.1
2016-09-22T09:41:31.247Z,20.1
2016-09-22T09:42:30.965Z,20.15
2016-09-22T09:43:31.031Z,20.24
2016-09-22T09:44:31.007Z,20.18
2016-09-22T09:45:31.443Z,20.22
2016-09-22T09:46:31.056Z,20.27
2016-09-22T09:47:31.467Z,20.32
2016-09-22T09:48:31.417Z,20.34
2016-09-22T09:49:31.138Z,20.36
2016-09-22T09:50:31.157Z,20.3
2016-09-22T09:51:31.181Z,20.29
2016-09-22T09:52:31.204Z,20.32
2016-09-22T09:53:31.231Z,20.4
2016-09-22T09:54:31.336Z,20.5
2016-09-22T09:55:31.583Z,20.46
2016-09-22T09:56:31.294Z,20.5
2016-09-22T09:57:31.025Z,20.52
2016-09-22T09:58:32.037Z,20.55
2016-09-22T09:59:31.686Z,20.59
2016-09-22T10:00:31.714Z,20.56
2016-09-22T10:01:31.745Z,20.56
2016-09-22T10:02:31.758Z,20.53
2016-09-22T10:03:31.536Z,20.56
2016-09-22T10:04:31.815Z,20.64
2016-09-22T10:05:31.855Z,20.63
2016-09-22T10:06:31.621Z,20.7
2016-09-22T10:07:31.596Z,20.67
2016-09-22T10:08:31.615Z,20.71
2016-09-22T10:09:31.614Z,20.74
2016-09-22T10:10:31.647Z,20.63
2016-09-22T10:11:31.693Z,20.56
2016-09-22T10:12:32.005Z,20.55
2016-09-22T10:13:31.790Z,20.5
2016-09-22T10:14:31.756Z,20.52
2016-09-22T10:15:32.268Z,20.58
2016-09-22T10:16:31.945Z,20.63
2016-09-22T10:17:32.255Z,20.73
2016-09-22T10:18:32.255Z,20.73
2016-09-22T10:19:32.316Z,20.8
2016-09-22T10:20:32.213Z,20.83
2016-09-22T10:21:32.231Z,20.83
2016-09-22T10:22:31.966Z,20.88
2016-09-22T10:23:32.048Z,20.92
2016-09-22T10:24:32.003Z,21.04
2016-09-22T10:25:32.332Z,21.05
2016-09-22T10:26:32.455Z,21.05
2016-09-22T10:27:32.065Z,21.08
2016-09-22T10:28:32.486Z,21.13
2016-09-22T10:29:32.509Z,21.15
2016-09-22T10:30:31.844Z,21.14
2016-09-22T10:31:32.167Z,21.2
2016-09-22T10:32:32.516Z,21.23
2016-09-22T10:33:32.232Z,21.3
2016-09-22T10:34:32.343Z,21.35
2016-09-22T10:35:32.582Z,21.43
2016-09-22T10:36:32.309Z,21.37
2016-09-22T10:37:32.655Z,21.38
2016-09-22T10:38:32.476Z,21.41
2016-09-22T10:39:32.675Z,21.38
2016-09-22T10:40:32.485Z,21.43
2016-09-22T10:41:32.745Z,21.37
2016-09-22T10:42:32.770Z,21.33
2016-09-22T10:43:32.561Z,21.26
2016-09-22T10:44:32.497Z,21.25
2016-09-22T10:45:32.851Z,21.33
2016-09-22T10:46:32.244Z,21.35
2016-09-22T10:47:32.375Z,21.38
2016-09-22T10:48:32.604Z,21.41
2016-09-22T10:49:33.083Z,21.48
2016-09-22T10:50:32.653Z,21.44
2016-09-22T10:51:32.991Z,21.53
2016-09-22T10:52:32.715Z,21.69
2016-09-22T10:53:32.846Z,21.72
2016-09-22T10:54:33.075Z,21.77
2016-09-22T10:55:33.106Z,21.89
2016-09-22T10:56:32.743Z,22.01
2016-09-22T10:57:33.033Z,22.03
2016-09-22T10:58:32.803Z,22.1
2016-09-22T10:59:33.352Z,22.04
2016-09-22T11:00:33.066Z,22.04
2016-09-22T11:01:33.358Z,22.08
2016-09-22T11:02:33.375Z,22.1
2016-09-22T11:03:33.408Z,22.07
2016-09-22T11:04:32.835Z,22.08
2016-09-22T11:05:33.405Z,22.06
2016-09-22T11:06:33.376Z,22.04
2016-09-22T11:07:33.406Z,22.07
2016-09-22T11:08:33.484Z,22.03
2016-09-22T11:09:33.464Z,22.18
2016-09-22T11:10:33.495Z,22.15
2016-09-22T11:11:33.591Z,22.25
2016-09-22T11:12:33.536Z,22.36
2016-09-22T11:13:33.656Z,22.12
2016-09-22T11:14:33.275Z,22.23
2016-09-22T11:15:33.675Z,22.23
2016-09-22T11:16:33.004Z,22.25
2016-09-22T11:17:33.670Z,22.28
2016-09-22T11:18:33.752Z,22.34
2016-09-22T11:19:33.457Z,22.31
2016-09-22T11:20:33.745Z,22.23
2016-09-22T11:21:33.763Z,22.3
2016-09-22T11:22:33.783Z,22.34
2016-09-22T11:23:33.954Z,22.41
2016-09-22T11:24:33.837Z,22.49
2016-09-22T11:25:33.885Z,22.56
2016-09-22T11:26:33.580Z,22.51
2016-09-22T11:27:33.935Z,22.62
2016-09-22T11:28:33.634Z,22.67
2016-09-22T11:29:33.665Z,22.61
2016-09-22T11:30:33.768Z,22.61
2016-09-22T11:31:34.036Z,22.62
2016-09-22T11:32:34.068Z,22.7
2016-09-22T11:33:34.087Z,22.65
2016-09-22T11:34:34.110Z,22.7
2016-09-22T11:35:33.825Z,22.65
2016-09-22T11:36:33.855Z,22.78
2016-09-22T11:37:33.883Z,22.78
2016-09-22T11:38:34.222Z,22.68
2016-09-22T11:39:34.229Z,22.74
2016-09-22T11:40:34.016Z,22.73
2016-09-22T11:41:33.988Z,22.67
2016-09-22T11:42:34.309Z,22.78
2016-09-22T11:43:34.035Z,22.7
2016-09-22T11:44:34.086Z,22.81
2016-09-22T11:45:34.096Z,22.83
2016-09-22T11:46:33.789Z,22.93
2016-09-22T11:47:34.505Z,22.98
2016-09-22T11:48:34.473Z,22.96
2016-09-22T11:49:34.183Z,23.08
2016-09-22T11:50:34.207Z,22.99
2016-09-22T11:51:34.566Z,22.91
2016-09-22T11:52:34.335Z,22.96
2016-09-22T11:53:34.294Z,23.02
2016-09-22T11:54:34.659Z,23.07
2016-09-22T11:55:34.713Z,23.11
2016-09-22T11:56:34.735Z,23.16
2016-09-22T11:57:34.496Z,23.17
2016-09-22T11:58:34.427Z,23.2
2016-09-22T11:59:34.457Z,23.04
2016-09-22T12:00:34.546Z,22.99
2016-09-22T12:01:34.826Z,23.01
2016-09-22T12:02:34.858Z,22.99
2016-09-22T12:03:34.878Z,23.14
2016-09-22T12:04:34.695Z,23.11
2016-09-22T12:05:34.616Z,23.14
2016-09-22T12:06:34.998Z,23.17
2016-09-22T12:07:34.984Z,23.14
2016-09-22T12:08:34.710Z,23.18
2016-09-22T12:09:35.041Z,23.18
2016-09-22T12:10:35.059Z,23.26
2016-09-22T12:11:34.776Z,23.25
2016-09-22T12:12:35.117Z,23.26
2016-09-22T12:13:35.194Z,23.21
2016-09-22T12:14:35.167Z,23.29
2016-09-22T12:15:34.900Z,23.28
2016-09-22T12:16:35.218Z,23.26
2016-09-22T12:17:35.258Z,23.34
2016-09-22T12:18:35.327Z,23.37
2016-09-22T12:19:35.329Z,23.48
2016-09-22T12:20:35.326Z,23.45
2016-09-22T12:21:35.356Z,23.44
2016-09-22T12:22:35.084Z,23.47
2016-09-22T12:23:35.102Z,23.36
2016-09-22T12:24:35.442Z,23.42
2016-09-22T12:25:35.156Z,23.29
2016-09-22T12:26:34.861Z,23.29
2016-09-22T12:27:35.506Z,23.28
2016-09-22T12:28:35.595Z,23.39
2016-09-22T12:29:35.569Z,23.28
2016-09-22T12:30:35.670Z,23.42
2016-09-22T12:31:35.630Z,23.44
2016-09-22T12:32:35.668Z,23.62
2016-09-22T12:33:35.113Z,23.62
2016-09-22T12:34:35.385Z,23.7
2016-09-22T12:35:35.743Z,23.81
2016-09-22T12:36:35.558Z,23.91
2016-09-22T12:37:35.479Z,23.91
2016-09-22T12:38:35.499Z,24.06
2016-09-22T12:39:35.895Z,23.95
2016-09-22T12:40:35.555Z,23.86
2016-09-22T12:41:35.902Z,23.89
2016-09-22T12:42:35.921Z,24.03
2016-09-22T12:43:35.999Z,23.94
2016-09-22T12:44:35.990Z,24.03
2016-09-22T12:45:36.001Z,24.1
2016-09-22T12:46:36.043Z,24.11
2016-09-22T12:47:35.755Z,24.03
2016-09-22T12:48:36.131Z,24.14
2016-09-22T12:49:36.182Z,24.26
2016-09-22T12:50:35.523Z,24.4
2016-09-22T12:51:36.252Z,24.43
2016-09-22T12:52:36.219Z,24.61
2016-09-22T12:53:35.969Z,24.69
2016-09-22T12:54:35.942Z,24.77
2016-09-22T12:55:35.982Z,24.92